CPZ3863 KMSP-KORD
Flight info
| Callsign | CPZ3863 |
|---|---|
| Flight time | N/A |
| Altitude | 31000 |
| Route | RST1 RST ZZIPR FYTTE7 |
| Aircraft | E75S/M-SDE3GILORVW/S |
Departure
| Time | 2026-05-04 00:17 |
|---|---|
| Airport | Minneapolis–Saint Paul International Airport / Wold–Chamberlain Field (KMSP) |
Arrival
| Time | N/A |
|---|---|
| Airport | Chicago O'Hare International Airport (KORD) |
| Time | Latitude | Longitude | Altitude | Speed | Heading |
|---|---|---|---|---|---|
| 2026-05-04 00:00 | 44.88212 | -93.20323 | 823 ft | 0 kts | 243° |
| 2026-05-04 00:03 | 44.88220 | -93.20302 | 819 ft | 4 kts | 243° |
| 2026-05-04 00:03 | 44.88230 | -93.20276 | 823 ft | 4 kts | 231° |
| 2026-05-04 00:04 | 44.88251 | -93.20253 | 820 ft | 4 kts | 211° |
| 2026-05-04 00:04 | 44.88270 | -93.20237 | 823 ft | 4 kts | 211° |
| 2026-05-04 00:04 | 44.88276 | -93.20232 | 823 ft | 0 kts | 211° |
| 2026-05-04 00:07 | 44.88270 | -93.20242 | 821 ft | 2 kts | 247° |
| 2026-05-04 00:07 | 44.88273 | -93.20257 | 823 ft | 2 kts | 304° |
| 2026-05-04 00:07 | 44.88283 | -93.20264 | 819 ft | 2 kts | 347° |
| 2026-05-04 00:07 | 44.88303 | -93.20275 | 823 ft | 4 kts | 322° |
| 2026-05-04 00:08 | 44.88322 | -93.20313 | 823 ft | 6 kts | 302° |
| 2026-05-04 00:08 | 44.88338 | -93.20349 | 820 ft | 7 kts | 302° |
| 2026-05-04 00:08 | 44.88365 | -93.20417 | 820 ft | 9 kts | 300° |
| 2026-05-04 00:08 | 44.88413 | -93.20528 | 823 ft | 11 kts | 301° |
| 2026-05-04 00:09 | 44.88438 | -93.20587 | 823 ft | 11 kts | 300° |
| 2026-05-04 00:09 | 44.88496 | -93.20717 | 823 ft | 13 kts | 301° |
| 2026-05-04 00:09 | 44.88527 | -93.20792 | 823 ft | 12 kts | 301° |
| 2026-05-04 00:09 | 44.88570 | -93.20858 | 823 ft | 9 kts | 322° |
| 2026-05-04 00:10 | 44.88606 | -93.20940 | 823 ft | 11 kts | 297° |
| 2026-05-04 00:10 | 44.88641 | -93.21039 | 823 ft | 12 kts | 297° |
| 2026-05-04 00:10 | 44.88683 | -93.21150 | 823 ft | 13 kts | 300° |
| 2026-05-04 00:10 | 44.88731 | -93.21270 | 823 ft | 15 kts | 292° |
| 2026-05-04 00:11 | 44.88723 | -93.21366 | 821 ft | 10 kts | 224° |
| 2026-05-04 00:11 | 44.88668 | -93.21441 | 823 ft | 12 kts | 225° |
| 2026-05-04 00:11 | 44.88605 | -93.21531 | 820 ft | 14 kts | 225° |
| 2026-05-04 00:11 | 44.88534 | -93.21631 | 823 ft | 15 kts | 225° |
| 2026-05-04 00:12 | 44.88455 | -93.21742 | 822 ft | 17 kts | 224° |
| 2026-05-04 00:12 | 44.88373 | -93.21856 | 822 ft | 17 kts | 224° |
| 2026-05-04 00:12 | 44.88302 | -93.21940 | 823 ft | 11 kts | 200° |
| 2026-05-04 00:12 | 44.88251 | -93.21897 | 823 ft | 9 kts | 115° |
| 2026-05-04 00:13 | 44.88212 | -93.21811 | 821 ft | 12 kts | 121° |
| 2026-05-04 00:13 | 44.88164 | -93.21700 | 822 ft | 14 kts | 120° |
| 2026-05-04 00:13 | 44.88108 | -93.21570 | 823 ft | 16 kts | 121° |
| 2026-05-04 00:13 | 44.88043 | -93.21423 | 819 ft | 19 kts | 121° |
| 2026-05-04 00:14 | 44.87973 | -93.21257 | 823 ft | 20 kts | 121° |
| 2026-05-04 00:14 | 44.87896 | -93.21078 | 821 ft | 22 kts | 121° |
| 2026-05-04 00:14 | 44.87813 | -93.20887 | 824 ft | 24 kts | 120° |
| 2026-05-04 00:14 | 44.87726 | -93.20688 | 824 ft | 24 kts | 121° |
| 2026-05-04 00:15 | 44.87636 | -93.20479 | 823 ft | 26 kts | 120° |
| 2026-05-04 00:15 | 44.87541 | -93.20260 | 821 ft | 25 kts | 121° |
| 2026-05-04 00:15 | 44.87492 | -93.20148 | 824 ft | 12 kts | 120° |
| 2026-05-04 00:15 | 44.87441 | -93.20075 | 821 ft | 9 kts | 179° |
| 2026-05-04 00:16 | 44.87383 | -93.20112 | 825 ft | 11 kts | 211° |
| 2026-05-04 00:16 | 44.87368 | -93.20156 | 824 ft | 6 kts | 292° |
| 2026-05-04 00:16 | 44.87423 | -93.20283 | 823 ft | 32 kts | 302° |
| 2026-05-04 00:16 | 44.87667 | -93.20852 | 823 ft | 104 kts | 301° |
| 2026-05-04 00:17 | 44.88141 | -93.21970 | 1041 ft | 145 kts | 299° |
| 2026-05-04 00:17 | 44.88482 | -93.23288 | 1805 ft | 155 kts | 264° |
| 2026-05-04 00:17 | 44.87938 | -93.24638 | 2581 ft | 160 kts | 224° |
| 2026-05-04 00:17 | 44.87073 | -93.25610 | 3646 ft | 161 kts | 219° |
| 2026-05-04 00:18 | 44.86165 | -93.26487 | 4435 ft | 162 kts | 219° |
| 2026-05-04 00:18 | 44.85190 | -93.27481 | 4745 ft | 183 kts | 219° |
| 2026-05-04 00:18 | 44.84065 | -93.28492 | 5074 ft | 203 kts | 208° |
| 2026-05-04 00:18 | 44.82633 | -93.28978 | 5455 ft | 222 kts | 186° |
| 2026-05-04 00:19 | 44.81060 | -93.28618 | 5975 ft | 236 kts | 165° |
| 2026-05-04 00:19 | 44.79504 | -93.27820 | 6470 ft | 253 kts | 162° |
| 2026-05-04 00:19 | 44.77785 | -93.26838 | 6677 ft | 281 kts | 160° |
| 2026-05-04 00:19 | 44.76004 | -93.25766 | 7126 ft | 293 kts | 159° |
| 2026-05-04 00:20 | 44.74111 | -93.24645 | 7812 ft | 296 kts | 160° |
| 2026-05-04 00:20 | 44.72201 | -93.23537 | 8532 ft | 298 kts | 160° |
| 2026-05-04 00:20 | 44.70279 | -93.22402 | 9224 ft | 300 kts | 160° |
| 2026-05-04 00:20 | 44.68343 | -93.21228 | 9859 ft | 304 kts | 159° |
| 2026-05-04 00:21 | 44.66402 | -93.20028 | 10236 ft | 316 kts | 159° |
| 2026-05-04 00:21 | 44.64348 | -93.18732 | 10523 ft | 331 kts | 158° |
| 2026-05-04 00:21 | 44.62229 | -93.17372 | 10988 ft | 336 kts | 158° |
| 2026-05-04 00:21 | 44.60055 | -93.16098 | 11561 ft | 339 kts | 161° |
| 2026-05-04 00:22 | 44.57884 | -93.14764 | 12161 ft | 343 kts | 158° |
| 2026-05-04 00:22 | 44.55724 | -93.13300 | 12747 ft | 347 kts | 156° |
| 2026-05-04 00:22 | 44.53557 | -93.11765 | 13380 ft | 350 kts | 155° |
| 2026-05-04 00:22 | 44.51372 | -93.10199 | 13960 ft | 353 kts | 155° |
| 2026-05-04 00:23 | 44.49170 | -93.08618 | 14533 ft | 357 kts | 155° |
| 2026-05-04 00:23 | 44.46948 | -93.07024 | 15149 ft | 360 kts | 155° |
| 2026-05-04 00:23 | 44.44709 | -93.05418 | 15760 ft | 363 kts | 155° |
| 2026-05-04 00:23 | 44.42479 | -93.03817 | 16356 ft | 367 kts | 155° |
| 2026-05-04 00:24 | 44.40191 | -93.02193 | 16964 ft | 371 kts | 155° |
| 2026-05-04 00:24 | 44.37867 | -93.00585 | 17583 ft | 374 kts | 155° |
| 2026-05-04 00:24 | 44.35517 | -92.98964 | 18212 ft | 378 kts | 155° |
| 2026-05-04 00:24 | 44.33144 | -92.97323 | 18765 ft | 383 kts | 155° |
| 2026-05-04 00:25 | 44.30745 | -92.95663 | 19363 ft | 387 kts | 155° |
| 2026-05-04 00:25 | 44.28319 | -92.93984 | 19962 ft | 391 kts | 155° |
| 2026-05-04 00:25 | 44.25868 | -92.92288 | 20568 ft | 395 kts | 154° |
| 2026-05-04 00:25 | 44.23392 | -92.90577 | 21134 ft | 399 kts | 154° |
| 2026-05-04 00:26 | 44.20889 | -92.88848 | 21689 ft | 403 kts | 154° |
| 2026-05-04 00:26 | 44.18365 | -92.87106 | 22228 ft | 407 kts | 154° |
| 2026-05-04 00:26 | 44.15814 | -92.85347 | 22782 ft | 410 kts | 154° |
| 2026-05-04 00:26 | 44.13271 | -92.83595 | 23327 ft | 414 kts | 154° |
| 2026-05-04 00:27 | 44.10676 | -92.81810 | 23834 ft | 417 kts | 154° |
| 2026-05-04 00:27 | 44.08054 | -92.80010 | 24375 ft | 420 kts | 153° |
| 2026-05-04 00:27 | 44.05423 | -92.78206 | 24895 ft | 423 kts | 154° |
| 2026-05-04 00:27 | 44.02774 | -92.76392 | 25393 ft | 426 kts | 153° |
| 2026-05-04 00:28 | 44.00104 | -92.74565 | 25859 ft | 429 kts | 154° |
| 2026-05-04 00:28 | 43.97416 | -92.72727 | 26305 ft | 431 kts | 153° |
| 2026-05-04 00:28 | 43.94716 | -92.70882 | 26743 ft | 434 kts | 153° |
| 2026-05-04 00:28 | 43.92038 | -92.69053 | 27159 ft | 436 kts | 153° |
| 2026-05-04 00:29 | 43.89306 | -92.67191 | 27588 ft | 438 kts | 153° |
| 2026-05-04 00:29 | 43.86560 | -92.65322 | 28000 ft | 441 kts | 153° |
| 2026-05-04 00:29 | 43.83802 | -92.63445 | 28399 ft | 443 kts | 153° |
| 2026-05-04 00:29 | 43.81021 | -92.61556 | 28784 ft | 446 kts | 153° |
| 2026-05-04 00:30 | 43.78320 | -92.59442 | 29117 ft | 448 kts | 142° |
| 2026-05-04 00:30 | 43.76079 | -92.56477 | 29495 ft | 446 kts | 130° |
| 2026-05-04 00:30 | 43.74052 | -92.53214 | 29835 ft | 448 kts | 128° |
| 2026-05-04 00:30 | 43.72039 | -92.49909 | 30099 ft | 451 kts | 128° |
| 2026-05-04 00:31 | 43.69991 | -92.46598 | 30359 ft | 454 kts | 129° |
| 2026-05-04 00:31 | 43.67918 | -92.43284 | 30600 ft | 458 kts | 129° |
| 2026-05-04 00:31 | 43.65827 | -92.39968 | 30871 ft | 458 kts | 129° |
| 2026-05-04 00:31 | 43.63719 | -92.36631 | 30834 ft | 460 kts | 129° |
| 2026-05-04 00:32 | 43.59506 | -92.29967 | 30769 ft | 460 kts | 129° |
| 2026-05-04 00:32 | 43.55316 | -92.23361 | 30773 ft | 461 kts | 130° |
| 2026-05-04 00:33 | 43.48975 | -92.13392 | 30768 ft | 461 kts | 130° |
| 2026-05-04 00:34 | 43.44735 | -92.06744 | 30771 ft | 462 kts | 130° |
| 2026-05-04 00:34 | 43.40484 | -92.00098 | 30759 ft | 462 kts | 130° |
| 2026-05-04 00:35 | 43.36230 | -91.93459 | 30764 ft | 463 kts | 130° |
| 2026-05-04 00:35 | 43.31970 | -91.86825 | 30770 ft | 463 kts | 130° |
| 2026-05-04 00:36 | 43.27703 | -91.80199 | 30772 ft | 463 kts | 130° |
| 2026-05-04 00:36 | 43.23418 | -91.73557 | 30771 ft | 464 kts | 130° |
| 2026-05-04 00:37 | 43.19178 | -91.66960 | 30770 ft | 463 kts | 127° |
| 2026-05-04 00:37 | 43.17418 | -91.63275 | 30775 ft | 462 kts | 116° |
| 2026-05-04 00:37 | 43.16011 | -91.59320 | 30789 ft | 461 kts | 112° |
| 2026-05-04 00:38 | 43.13387 | -91.51317 | 30757 ft | 461 kts | 112° |
| 2026-05-04 00:38 | 43.10703 | -91.43347 | 30756 ft | 461 kts | 112° |
| 2026-05-04 00:39 | 43.07990 | -91.35387 | 30754 ft | 461 kts | 113° |
| 2026-05-04 00:39 | 43.05269 | -91.27437 | 30754 ft | 462 kts | 113° |
| 2026-05-04 00:40 | 43.02526 | -91.19504 | 30760 ft | 462 kts | 113° |
| 2026-05-04 00:40 | 42.99779 | -91.11625 | 30758 ft | 462 kts | 113° |
| 2026-05-04 00:41 | 42.97010 | -91.03699 | 30764 ft | 462 kts | 113° |
| 2026-05-04 00:41 | 42.94238 | -90.95777 | 30754 ft | 462 kts | 113° |
| 2026-05-04 00:42 | 42.91460 | -90.87860 | 30754 ft | 462 kts | 113° |
| 2026-05-04 00:42 | 42.88678 | -90.79953 | 30748 ft | 462 kts | 113° |
| 2026-05-04 00:43 | 42.85903 | -90.72091 | 30756 ft | 463 kts | 114° |
| 2026-05-04 00:43 | 42.83103 | -90.64186 | 30759 ft | 463 kts | 114° |
| 2026-05-04 00:44 | 42.80300 | -90.56300 | 30766 ft | 463 kts | 114° |
| 2026-05-04 00:44 | 42.77485 | -90.48395 | 30768 ft | 463 kts | 114° |
| 2026-05-04 00:45 | 42.74666 | -90.40506 | 30770 ft | 463 kts | 114° |
| 2026-05-04 00:45 | 42.71844 | -90.32628 | 30767 ft | 463 kts | 114° |
| 2026-05-04 00:46 | 42.69014 | -90.24759 | 30775 ft | 463 kts | 114° |
| 2026-05-04 00:46 | 42.67603 | -90.20864 | 30465 ft | 467 kts | 114° |
| 2026-05-04 00:46 | 42.66160 | -90.16886 | 29700 ft | 466 kts | 114° |
| 2026-05-04 00:46 | 42.64736 | -90.12970 | 29026 ft | 458 kts | 114° |
| 2026-05-04 00:47 | 42.63342 | -90.09141 | 28420 ft | 449 kts | 114° |
| 2026-05-04 00:47 | 42.61957 | -90.05334 | 27836 ft | 450 kts | 114° |
| 2026-05-04 00:47 | 42.60570 | -90.01525 | 27223 ft | 450 kts | 114° |
| 2026-05-04 00:47 | 42.59183 | -89.97722 | 26632 ft | 448 kts | 114° |
| 2026-05-04 00:48 | 42.57802 | -89.93941 | 26043 ft | 445 kts | 114° |
| 2026-05-04 00:48 | 42.56427 | -89.90188 | 25452 ft | 441 kts | 114° |
| 2026-05-04 00:48 | 42.55065 | -89.86469 | 24865 ft | 438 kts | 114° |
| 2026-05-04 00:48 | 42.53713 | -89.82785 | 24289 ft | 434 kts | 115° |
| 2026-05-04 00:49 | 42.52381 | -89.79127 | 23804 ft | 428 kts | 112° |
| 2026-05-04 00:49 | 42.51545 | -89.75376 | 23770 ft | 418 kts | 99° |
| 2026-05-04 00:49 | 42.51013 | -89.71428 | 23105 ft | 430 kts | 96° |
| 2026-05-04 00:49 | 42.50576 | -89.67479 | 22858 ft | 418 kts | 95° |
| 2026-05-04 00:50 | 42.50131 | -89.63589 | 22518 ft | 417 kts | 96° |
| 2026-05-04 00:50 | 42.49670 | -89.59709 | 22229 ft | 418 kts | 96° |
| 2026-05-04 00:50 | 42.49198 | -89.55826 | 21942 ft | 416 kts | 96° |
| 2026-05-04 00:50 | 42.48721 | -89.51960 | 21610 ft | 416 kts | 96° |
| 2026-05-04 00:51 | 42.48243 | -89.48103 | 21325 ft | 414 kts | 97° |
| 2026-05-04 00:51 | 42.47764 | -89.44256 | 21031 ft | 413 kts | 97° |
| 2026-05-04 00:51 | 42.47291 | -89.40475 | 20688 ft | 413 kts | 97° |
| 2026-05-04 00:51 | 42.46816 | -89.36660 | 20351 ft | 410 kts | 97° |
| 2026-05-04 00:52 | 42.46350 | -89.32846 | 19844 ft | 410 kts | 97° |
| 2026-05-04 00:52 | 42.45885 | -89.29049 | 19341 ft | 406 kts | 97° |
| 2026-05-04 00:52 | 42.45424 | -89.25299 | 18871 ft | 402 kts | 97° |
| 2026-05-04 00:52 | 42.44964 | -89.21579 | 18416 ft | 399 kts | 97° |
| 2026-05-04 00:53 | 42.44506 | -89.17887 | 17948 ft | 397 kts | 97° |
| 2026-05-04 00:53 | 42.44049 | -89.14218 | 17515 ft | 393 kts | 97° |
| 2026-05-04 00:53 | 42.43596 | -89.10579 | 17234 ft | 387 kts | 97° |
| 2026-05-04 00:53 | 42.43134 | -89.06960 | 16733 ft | 393 kts | 98° |
| 2026-05-04 00:54 | 42.42668 | -89.03335 | 16210 ft | 389 kts | 98° |
| 2026-05-04 00:54 | 42.42223 | -88.99790 | 15706 ft | 384 kts | 98° |
| 2026-05-04 00:54 | 42.41772 | -88.96201 | 15187 ft | 380 kts | 98° |
| 2026-05-04 00:54 | 42.41337 | -88.92737 | 14695 ft | 376 kts | 98° |
| 2026-05-04 00:55 | 42.40897 | -88.89256 | 14198 ft | 373 kts | 98° |
| 2026-05-04 00:55 | 42.40459 | -88.85808 | 13709 ft | 370 kts | 98° |
| 2026-05-04 00:55 | 42.40020 | -88.82385 | 13189 ft | 366 kts | 98° |
| 2026-05-04 00:55 | 42.39732 | -88.80149 | 12909 ft | 364 kts | 98° |
| 2026-05-04 00:56 | 42.39315 | -88.76776 | 12437 ft | 360 kts | 95° |
| 2026-05-04 00:56 | 42.39067 | -88.73422 | 12095 ft | 357 kts | 96° |
| 2026-05-04 00:56 | 42.38720 | -88.70105 | 11879 ft | 356 kts | 96° |
| 2026-05-04 00:56 | 42.38364 | -88.66775 | 11645 ft | 357 kts | 96° |
| 2026-05-04 00:57 | 42.38010 | -88.63446 | 11386 ft | 354 kts | 96° |
| 2026-05-04 00:57 | 42.37666 | -88.60214 | 11125 ft | 341 kts | 97° |
| 2026-05-04 00:57 | 42.37334 | -88.57087 | 10916 ft | 328 kts | 96° |
| 2026-05-04 00:57 | 42.37020 | -88.54109 | 10888 ft | 314 kts | 96° |
| 2026-05-04 00:58 | 42.36713 | -88.51215 | 11059 ft | 312 kts | 96° |
| 2026-05-04 00:58 | 42.36399 | -88.48260 | 11057 ft | 319 kts | 96° |
| 2026-05-04 00:58 | 42.36083 | -88.45289 | 11029 ft | 320 kts | 96° |
| 2026-05-04 00:58 | 42.35764 | -88.42277 | 10592 ft | 325 kts | 96° |
| 2026-05-04 00:59 | 42.35555 | -88.40280 | 10341 ft | 323 kts | 96° |
| 2026-05-04 00:59 | 42.35451 | -88.39285 | 10213 ft | 321 kts | 96° |
| 2026-05-04 00:59 | 42.35134 | -88.36204 | 9407 ft | 330 kts | 97° |
| 2026-05-04 01:00 | 42.34822 | -88.33134 | 8529 ft | 338 kts | 97° |
| 2026-05-04 01:00 | 42.34503 | -88.29948 | 7674 ft | 344 kts | 97° |
| 2026-05-04 01:00 | 42.34304 | -88.26788 | 5761 ft | 319 kts | 89° |